sensor_id;sensor_type;location;lat;lon;timestamp;temperature;humidity
20698;DHT22;10508;50.956;4.640;2022-12-18T00:01:22;-4.70;99.90
20698;DHT22;10508;50.956;4.640;2022-12-18T00:03:48;-4.60;99.90
20698;DHT22;10508;50.956;4.640;2022-12-18T00:06:14;-4.70;99.90
20698;DHT22;10508;50.956;4.640;2022-12-18T00:08:41;-4.90;99.90
20698;DHT22;10508;50.956;4.640;2022-12-18T00:11:10;-5.00;99.90
20698;DHT22;10508;50.956;4.640;2022-12-18T00:13:36;-5.00;99.90
20698;DHT22;10508;50.956;4.640;2022-12-18T00:16:03;-4.90;99.90
20698;DHT22;10508;50.956;4.640;2022-12-18T00:18:30;-4.70;99.90
20698;DHT22;10508;50.956;4.640;2022-12-18T00:21:02;-4.80;99.90
20698;DHT22;10508;50.956;4.640;2022-12-18T00:23:28;-4.90;99.90
20698;DHT22;10508;50.956;4.640;2022-12-18T00:25:54;-5.00;99.90
20698;DHT22;10508;50.956;4.640;2022-12-18T00:28:28;-5.10;99.90
20698;DHT22;10508;50.956;4.640;2022-12-18T00:31:09;-5.00;99.90
20698;DHT22;10508;50.956;4.640;2022-12-18T00:33:36;-5.00;99.90
20698;DHT22;10508;50.956;4.640;2022-12-18T00:38:28;-5.20;99.90
20698;DHT22;10508;50.956;4.640;2022-12-18T00:40:56;-5.30;99.90
20698;DHT22;10508;50.956;4.640;2022-12-18T00:43:22;-5.10;99.90
20698;DHT22;10508;50.956;4.640;2022-12-18T00:45:48;-4.80;99.90
20698;DHT22;10508;50.956;4.640;2022-12-18T00:48:14;-4.60;99.90
20698;DHT22;10508;50.956;4.640;2022-12-18T00:50:39;-4.60;99.90
20698;DHT22;10508;50.956;4.640;2022-12-18T00:53:05;-4.50;99.90
20698;DHT22;10508;50.956;4.640;2022-12-18T00:55:30;-4.70;99.90
20698;DHT22;10508;50.956;4.640;2022-12-18T00:57:56;-4.80;99.90
20698;DHT22;10508;50.956;4.640;2022-12-18T01:00:22;-4.80;99.90
20698;DHT22;10508;50.956;4.640;2022-12-18T01:02:48;-4.70;99.90
20698;DHT22;10508;50.956;4.640;2022-12-18T01:05:14;-4.90;99.90
20698;DHT22;10508;50.956;4.640;2022-12-18T01:07:39;-4.90;99.90
20698;DHT22;10508;50.956;4.640;2022-12-18T01:10:24;-4.80;99.90
20698;DHT22;10508;50.956;4.640;2022-12-18T01:12:50;-5.00;99.90
20698;DHT22;10508;50.956;4.640;2022-12-18T01:15:17;-5.20;99.90
20698;DHT22;10508;50.956;4.640;2022-12-18T01:17:43;-5.20;99.90
20698;DHT22;10508;50.956;4.640;2022-12-18T01:20:11;-5.30;99.90
20698;DHT22;10508;50.956;4.640;2022-12-18T01:22:37;-5.40;99.90
20698;DHT22;10508;50.956;4.640;2022-12-18T01:25:04;-5.30;99.90
20698;DHT22;10508;50.956;4.640;2022-12-18T01:27:30;-5.30;99.90
20698;DHT22;10508;50.956;4.640;2022-12-18T01:29:55;-5.40;99.90
20698;DHT22;10508;50.956;4.640;2022-12-18T01:32:21;-5.40;99.90
20698;DHT22;10508;50.956;4.640;2022-12-18T01:34:47;-5.50;99.90
20698;DHT22;10508;50.956;4.640;2022-12-18T01:37:13;-5.40;99.90
20698;DHT22;10508;50.956;4.640;2022-12-18T01:39:38;-5.30;99.90
20698;DHT22;10508;50.956;4.640;2022-12-18T01:42:12;-5.40;99.90
20698;DHT22;10508;50.956;4.640;2022-12-18T01:50:15;-5.30;99.90
20698;DHT22;10508;50.956;4.640;2022-12-18T01:52:51;-5.40;99.90
20698;DHT22;10508;50.956;4.640;2022-12-18T01:55:20;-5.50;99.90
20698;DHT22;10508;50.956;4.640;2022-12-18T01:57:48;-5.60;99.90
20698;DHT22;10508;50.956;4.640;2022-12-18T02:00:17;-5.60;99.90
20698;DHT22;10508;50.956;4.640;2022-12-18T02:02:45;-5.60;99.90
20698;DHT22;10508;50.956;4.640;2022-12-18T02:05:13;-5.60;99.90
20698;DHT22;10508;50.956;4.640;2022-12-18T02:10:37;-5.10;99.90
20698;DHT22;10508;50.956;4.640;2022-12-18T02:15:58;-5.30;99.90
20698;DHT22;10508;50.956;4.640;2022-12-18T02:18:35;-5.30;99.90
20698;DHT22;10508;50.956;4.640;2022-12-18T02:26:48;-5.70;99.90
20698;DHT22;10508;50.956;4.640;2022-12-18T02:29:18;-5.80;99.90
20698;DHT22;10508;50.956;4.640;2022-12-18T02:32:08;-6.00;99.90
20698;DHT22;10508;50.956;4.640;2022-12-18T02:34:37;-6.00;99.90
20698;DHT22;10508;50.956;4.640;2022-12-18T02:37:05;-5.90;99.90
20698;DHT22;10508;50.956;4.640;2022-12-18T02:39:33;-6.00;99.90
20698;DHT22;10508;50.956;4.640;2022-12-18T02:41:59;-6.00;99.90
20698;DHT22;10508;50.956;4.640;2022-12-18T02:44:27;-6.00;99.90
20698;DHT22;10508;50.956;4.640;2022-12-18T02:46:53;-5.90;99.90
20698;DHT22;10508;50.956;4.640;2022-12-18T02:49:39;-5.90;99.90
20698;DHT22;10508;50.956;4.640;2022-12-18T02:52:28;-5.90;99.90
20698;DHT22;10508;50.956;4.640;2022-12-18T02:57:46;-5.90;99.90
20698;DHT22;10508;50.956;4.640;2022-12-18T03:00:32;-6.00;99.90
20698;DHT22;10508;50.956;4.640;2022-12-18T03:03:06;-6.00;99.90
20698;DHT22;10508;50.956;4.640;2022-12-18T03:05:40;-5.90;99.90
20698;DHT22;10508;50.956;4.640;2022-12-18T03:08:15;-5.90;99.90
20698;DHT22;10508;50.956;4.640;2022-12-18T03:10:51;-5.70;99.90
20698;DHT22;10508;50.956;4.640;2022-12-18T03:13:32;-5.70;99.90
20698;DHT22;10508;50.956;4.640;2022-12-18T03:16:00;-5.90;99.90
20698;DHT22;10508;50.956;4.640;2022-12-18T03:18:52;-5.80;99.90
20698;DHT22;10508;50.956;4.640;2022-12-18T03:21:22;-6.00;99.90
20698;DHT22;10508;50.956;4.640;2022-12-18T03:23:50;-6.10;99.90
20698;DHT22;10508;50.956;4.640;2022-12-18T03:26:20;-6.20;99.90
20698;DHT22;10508;50.956;4.640;2022-12-18T03:28:56;-6.20;99.90
20698;DHT22;10508;50.956;4.640;2022-12-18T03:31:23;-6.30;99.90
20698;DHT22;10508;50.956;4.640;2022-12-18T03:33:58;-6.20;99.90
20698;DHT22;10508;50.956;4.640;2022-12-18T03:36:24;-6.10;99.90
20698;DHT22;10508;50.956;4.640;2022-12-18T03:38:51;-6.10;99.90
20698;DHT22;10508;50.956;4.640;2022-12-18T03:41:32;-5.90;99.90
20698;DHT22;10508;50.956;4.640;2022-12-18T03:49:25;-5.70;99.90
20698;DHT22;10508;50.956;4.640;2022-12-18T03:52:09;-5.60;99.90
20698;DHT22;10508;50.956;4.640;2022-12-18T03:54:36;-5.80;99.90
20698;DHT22;10508;50.956;4.640;2022-12-18T03:57:25;-5.90;99.90
20698;DHT22;10508;50.956;4.640;2022-12-18T03:59:56;-6.10;99.90
20698;DHT22;10508;50.956;4.640;2022-12-18T04:02:23;-6.20;99.90
20698;DHT22;10508;50.956;4.640;2022-12-18T04:04:52;-6.20;99.90
20698;DHT22;10508;50.956;4.640;2022-12-18T04:07:19;-6.20;99.90
20698;DHT22;10508;50.956;4.640;2022-12-18T04:09:48;-6.20;99.90
20698;DHT22;10508;50.956;4.640;2022-12-18T04:12:14;-6.30;99.90
20698;DHT22;10508;50.956;4.640;2022-12-18T04:14:40;-6.40;99.90
20698;DHT22;10508;50.956;4.640;2022-12-18T04:17:06;-6.40;99.90
20698;DHT22;10508;50.956;4.640;2022-12-18T04:19:31;-6.40;99.90
20698;DHT22;10508;50.956;4.640;2022-12-18T04:21:57;-6.40;99.90
20698;DHT22;10508;50.956;4.640;2022-12-18T04:24:22;-6.40;99.90
20698;DHT22;10508;50.956;4.640;2022-12-18T04:26:48;-6.30;99.90
20698;DHT22;10508;50.956;4.640;2022-12-18T04:29:13;-6.40;99.90
20698;DHT22;10508;50.956;4.640;2022-12-18T04:31:39;-6.40;99.90
20698;DHT22;10508;50.956;4.640;2022-12-18T04:34:05;-6.30;99.90
20698;DHT22;10508;50.956;4.640;2022-12-18T04:36:30;-6.30;99.90
20698;DHT22;10508;50.956;4.640;2022-12-18T04:38:56;-6.20;99.90
20698;DHT22;10508;50.956;4.640;2022-12-18T04:41:22;-6.20;99.90
20698;DHT22;10508;50.956;4.640;2022-12-18T04:43:47;-6.30;99.90
20698;DHT22;10508;50.956;4.640;2022-12-18T04:46:13;-6.10;99.90
20698;DHT22;10508;50.956;4.640;2022-12-18T04:48:39;-6.00;99.90
20698;DHT22;10508;50.956;4.640;2022-12-18T04:51:05;-6.00;99.90
20698;DHT22;10508;50.956;4.640;2022-12-18T04:53:31;-5.90;99.90
20698;DHT22;10508;50.956;4.640;2022-12-18T04:56:08;-5.90;99.90
20698;DHT22;10508;50.956;4.640;2022-12-18T04:58:35;-5.90;99.90
20698;DHT22;10508;50.956;4.640;2022-12-18T05:01:01;-5.90;99.90
20698;DHT22;10508;50.956;4.640;2022-12-18T05:03:27;-6.10;99.90
20698;DHT22;10508;50.956;4.640;2022-12-18T05:05:52;-6.10;99.90
20698;DHT22;10508;50.956;4.640;2022-12-18T05:08:18;-6.20;99.90
20698;DHT22;10508;50.956;4.640;2022-12-18T05:10:44;-6.30;99.90
20698;DHT22;10508;50.956;4.640;2022-12-18T05:13:10;-6.40;99.90
20698;DHT22;10508;50.956;4.640;2022-12-18T05:15:36;-6.40;99.90
20698;DHT22;10508;50.956;4.640;2022-12-18T05:18:02;-6.50;99.90
20698;DHT22;10508;50.956;4.640;2022-12-18T05:20:29;-6.50;99.90
20698;DHT22;10508;50.956;4.640;2022-12-18T05:22:55;-6.60;99.90
20698;DHT22;10508;50.956;4.640;2022-12-18T05:25:21;-6.50;99.90
20698;DHT22;10508;50.956;4.640;2022-12-18T05:27:47;-6.20;99.90
20698;DHT22;10508;50.956;4.640;2022-12-18T05:30:13;-6.20;99.90
20698;DHT22;10508;50.956;4.640;2022-12-18T05:32:40;-6.30;99.90
20698;DHT22;10508;50.956;4.640;2022-12-18T05:35:07;-6.40;99.90
20698;DHT22;10508;50.956;4.640;2022-12-18T05:37:33;-6.50;99.90
20698;DHT22;10508;50.956;4.640;2022-12-18T05:39:59;-6.50;99.90
20698;DHT22;10508;50.956;4.640;2022-12-18T05:42:24;-6.60;99.90
20698;DHT22;10508;50.956;4.640;2022-12-18T05:44:50;-6.60;99.90
20698;DHT22;10508;50.956;4.640;2022-12-18T05:47:16;-6.60;99.90
20698;DHT22;10508;50.956;4.640;2022-12-18T05:49:41;-6.60;99.90
20698;DHT22;10508;50.956;4.640;2022-12-18T05:52:07;-6.70;99.90
20698;DHT22;10508;50.956;4.640;2022-12-18T05:54:33;-6.70;99.90
20698;DHT22;10508;50.956;4.640;2022-12-18T05:56:58;-6.70;99.90
20698;DHT22;10508;50.956;4.640;2022-12-18T05:59:24;-6.70;99.90
20698;DHT22;10508;50.956;4.640;2022-12-18T06:01:50;-6.70;99.90
20698;DHT22;10508;50.956;4.640;2022-12-18T06:04:15;-6.60;99.90
20698;DHT22;10508;50.956;4.640;2022-12-18T06:06:41;-6.70;99.90
20698;DHT22;10508;50.956;4.640;2022-12-18T06:09:06;-6.70;99.90
20698;DHT22;10508;50.956;4.640;2022-12-18T06:11:35;-6.70;99.90
20698;DHT22;10508;50.956;4.640;2022-12-18T06:14:02;-6.70;99.90
20698;DHT22;10508;50.956;4.640;2022-12-18T06:16:29;-6.80;99.90
20698;DHT22;10508;50.956;4.640;2022-12-18T06:18:59;-6.80;99.90
20698;DHT22;10508;50.956;4.640;2022-12-18T06:21:26;-6.70;99.90
20698;DHT22;10508;50.956;4.640;2022-12-18T06:23:52;-6.70;99.90
20698;DHT22;10508;50.956;4.640;2022-12-18T06:26:18;-6.80;99.90
20698;DHT22;10508;50.956;4.640;2022-12-18T06:28:44;-6.80;99.90
20698;DHT22;10508;50.956;4.640;2022-12-18T06:31:10;-6.90;99.90
20698;DHT22;10508;50.956;4.640;2022-12-18T06:33:36;-6.80;99.90
20698;DHT22;10508;50.956;4.640;2022-12-18T06:36:08;-6.80;99.90
20698;DHT22;10508;50.956;4.640;2022-12-18T06:38:35;-6.90;99.90
20698;DHT22;10508;50.956;4.640;2022-12-18T06:41:21;-6.90;99.90
20698;DHT22;10508;50.956;4.640;2022-12-18T06:43:46;-6.60;99.90
20698;DHT22;10508;50.956;4.640;2022-12-18T06:46:12;-6.40;99.90
20698;DHT22;10508;50.956;4.640;2022-12-18T06:48:38;-6.40;99.90
20698;DHT22;10508;50.956;4.640;2022-12-18T06:51:04;-6.40;99.90
20698;DHT22;10508;50.956;4.640;2022-12-18T06:53:29;-6.50;99.90
20698;DHT22;10508;50.956;4.640;2022-12-18T06:56:04;-6.60;99.90
20698;DHT22;10508;50.956;4.640;2022-12-18T06:58:30;-6.70;99.90
20698;DHT22;10508;50.956;4.640;2022-12-18T07:01:01;-6.60;99.90
20698;DHT22;10508;50.956;4.640;2022-12-18T07:03:27;-6.50;99.90
20698;DHT22;10508;50.956;4.640;2022-12-18T07:05:52;-6.40;99.90
20698;DHT22;10508;50.956;4.640;2022-12-18T07:08:18;-6.50;99.90
20698;DHT22;10508;50.956;4.640;2022-12-18T07:10:44;-6.60;99.90
20698;DHT22;10508;50.956;4.640;2022-12-18T07:13:09;-6.60;99.90
20698;DHT22;10508;50.956;4.640;2022-12-18T07:15:35;-6.70;99.90
20698;DHT22;10508;50.956;4.640;2022-12-18T07:18:01;-6.70;99.90
20698;DHT22;10508;50.956;4.640;2022-12-18T07:20:26;-6.80;99.90
20698;DHT22;10508;50.956;4.640;2022-12-18T07:22:52;-6.60;99.90
20698;DHT22;10508;50.956;4.640;2022-12-18T07:25:17;-6.60;99.90
20698;DHT22;10508;50.956;4.640;2022-12-18T07:27:43;-6.60;99.90
20698;DHT22;10508;50.956;4.640;2022-12-18T07:30:09;-6.60;99.90
20698;DHT22;10508;50.956;4.640;2022-12-18T07:32:35;-6.50;99.90
20698;DHT22;10508;50.956;4.640;2022-12-18T07:35:00;-6.40;99.90
20698;DHT22;10508;50.956;4.640;2022-12-18T07:37:26;-6.50;99.90
20698;DHT22;10508;50.956;4.640;2022-12-18T07:39:52;-6.50;99.90
20698;DHT22;10508;50.956;4.640;2022-12-18T07:42:32;-6.50;99.90
20698;DHT22;10508;50.956;4.640;2022-12-18T07:44:59;-6.60;99.90
20698;DHT22;10508;50.956;4.640;2022-12-18T07:47:25;-6.50;99.90
20698;DHT22;10508;50.956;4.640;2022-12-18T07:49:51;-6.50;99.90
20698;DHT22;10508;50.956;4.640;2022-12-18T07:52:17;-6.50;99.90
20698;DHT22;10508;50.956;4.640;2022-12-18T07:54:42;-6.50;99.90
20698;DHT22;10508;50.956;4.640;2022-12-18T07:57:08;-6.50;99.90
20698;DHT22;10508;50.956;4.640;2022-12-18T07:59:34;-6.50;99.90
20698;DHT22;10508;50.956;4.640;2022-12-18T08:02:00;-6.50;99.90
20698;DHT22;10508;50.956;4.640;2022-12-18T08:04:26;-6.50;99.90
20698;DHT22;10508;50.956;4.640;2022-12-18T08:06:51;-6.40;99.90
20698;DHT22;10508;50.956;4.640;2022-12-18T08:09:17;-6.30;99.90
20698;DHT22;10508;50.956;4.640;2022-12-18T08:11:44;-6.10;99.90
20698;DHT22;10508;50.956;4.640;2022-12-18T08:14:10;-6.10;99.90
20698;DHT22;10508;50.956;4.640;2022-12-18T08:16:36;-6.10;99.90
20698;DHT22;10508;50.956;4.640;2022-12-18T08:19:02;-6.00;99.90
20698;DHT22;10508;50.956;4.640;2022-12-18T08:21:29;-6.00;99.90
20698;DHT22;10508;50.956;4.640;2022-12-18T08:23:57;-5.90;99.90
20698;DHT22;10508;50.956;4.640;2022-12-18T08:26:24;-5.80;99.90
20698;DHT22;10508;50.956;4.640;2022-12-18T08:28:51;-5.50;99.90
20698;DHT22;10508;50.956;4.640;2022-12-18T08:31:18;-5.40;99.90
20698;DHT22;10508;50.956;4.640;2022-12-18T08:33:43;-5.20;99.90
20698;DHT22;10508;50.956;4.640;2022-12-18T08:36:10;-5.10;99.90
20698;DHT22;10508;50.956;4.640;2022-12-18T08:38:35;-4.90;99.90
20698;DHT22;10508;50.956;4.640;2022-12-18T08:41:06;-4.80;99.90
20698;DHT22;10508;50.956;4.640;2022-12-18T08:43:32;-4.70;99.90
20698;DHT22;10508;50.956;4.640;2022-12-18T08:46:17;-4.60;99.90
20698;DHT22;10508;50.956;4.640;2022-12-18T08:48:44;-4.50;99.90
20698;DHT22;10508;50.956;4.640;2022-12-18T08:51:09;-4.40;99.90
20698;DHT22;10508;50.956;4.640;2022-12-18T08:53:36;-4.20;99.90
20698;DHT22;10508;50.956;4.640;2022-12-18T08:56:02;-4.10;99.90
20698;DHT22;10508;50.956;4.640;2022-12-18T08:58:29;-4.00;99.90
20698;DHT22;10508;50.956;4.640;2022-12-18T09:01:00;-3.90;99.90
20698;DHT22;10508;50.956;4.640;2022-12-18T09:03:26;-4.00;99.90
20698;DHT22;10508;50.956;4.640;2022-12-18T09:05:51;-3.90;99.90
20698;DHT22;10508;50.956;4.640;2022-12-18T09:08:17;-3.90;99.90
20698;DHT22;10508;50.956;4.640;2022-12-18T09:10:47;-3.80;99.90
20698;DHT22;10508;50.956;4.640;2022-12-18T09:13:13;-3.70;99.90
20698;DHT22;10508;50.956;4.640;2022-12-18T09:15:43;-3.50;99.90
20698;DHT22;10508;50.956;4.640;2022-12-18T09:18:11;-3.40;99.90
20698;DHT22;10508;50.956;4.640;2022-12-18T09:20:37;-3.40;99.90
20698;DHT22;10508;50.956;4.640;2022-12-18T09:23:03;-3.30;99.90
20698;DHT22;10508;50.956;4.640;2022-12-18T09:25:30;-3.30;99.90
20698;DHT22;10508;50.956;4.640;2022-12-18T09:28:17;-3.10;99.90
20698;DHT22;10508;50.956;4.640;2022-12-18T09:30:46;-3.10;99.90
20698;DHT22;10508;50.956;4.640;2022-12-18T09:33:13;-3.10;99.90
20698;DHT22;10508;50.956;4.640;2022-12-18T09:35:41;-3.00;99.90
20698;DHT22;10508;50.956;4.640;2022-12-18T09:38:08;-3.00;99.90
20698;DHT22;10508;50.956;4.640;2022-12-18T09:40:41;-3.00;99.90
20698;DHT22;10508;50.956;4.640;2022-12-18T09:43:15;-3.00;99.90
20698;DHT22;10508;50.956;4.640;2022-12-18T09:45:44;-2.90;99.90
20698;DHT22;10508;50.956;4.640;2022-12-18T09:48:22;-2.90;99.90
20698;DHT22;10508;50.956;4.640;2022-12-18T09:50:50;-2.80;99.90
20698;DHT22;10508;50.956;4.640;2022-12-18T09:53:21;-2.80;99.90
20698;DHT22;10508;50.956;4.640;2022-12-18T09:55:49;-2.70;99.90
20698;DHT22;10508;50.956;4.640;2022-12-18T09:58:30;-2.70;99.90
20698;DHT22;10508;50.956;4.640;2022-12-18T10:00:57;-2.60;99.90
20698;DHT22;10508;50.956;4.640;2022-12-18T10:03:23;-2.60;99.90
20698;DHT22;10508;50.956;4.640;2022-12-18T10:06:08;-2.50;99.90
20698;DHT22;10508;50.956;4.640;2022-12-18T10:09:05;-2.40;99.90
20698;DHT22;10508;50.956;4.640;2022-12-18T10:19:45;-2.20;99.90
20698;DHT22;10508;50.956;4.640;2022-12-18T10:25:19;-2.10;99.90
20698;DHT22;10508;50.956;4.640;2022-12-18T10:27:46;-2.10;99.90
20698;DHT22;10508;50.956;4.640;2022-12-18T10:30:14;-2.00;99.90
20698;DHT22;10508;50.956;4.640;2022-12-18T10:32:41;-2.00;99.90
20698;DHT22;10508;50.956;4.640;2022-12-18T10:35:24;-1.90;99.90
20698;DHT22;10508;50.956;4.640;2022-12-18T10:40:55;-1.80;99.90
20698;DHT22;10508;50.956;4.640;2022-12-18T10:51:23;-1.60;99.90
20698;DHT22;10508;50.956;4.640;2022-12-18T10:54:04;-1.60;99.90
20698;DHT22;10508;50.956;4.640;2022-12-18T10:56:32;-1.50;99.90
20698;DHT22;10508;50.956;4.640;2022-12-18T11:01:26;-1.30;99.90
20698;DHT22;10508;50.956;4.640;2022-12-18T11:06:23;-1.20;99.90
20698;DHT22;10508;50.956;4.640;2022-12-18T11:09:19;-1.20;99.90
20698;DHT22;10508;50.956;4.640;2022-12-18T11:12:19;-1.10;99.90
20698;DHT22;10508;50.956;4.640;2022-12-18T11:14:53;-1.00;99.90
20698;DHT22;10508;50.956;4.640;2022-12-18T11:17:28;-1.00;99.90
20698;DHT22;10508;50.956;4.640;2022-12-18T11:20:00;-0.90;99.90
20698;DHT22;10508;50.956;4.640;2022-12-18T11:22:27;-0.80;99.90
20698;DHT22;10508;50.956;4.640;2022-12-18T11:27:38;-0.80;99.90
20698;DHT22;10508;50.956;4.640;2022-12-18T11:30:09;-0.70;99.90
20698;DHT22;10508;50.956;4.640;2022-12-18T11:32:43;-0.70;99.90
20698;DHT22;10508;50.956;4.640;2022-12-18T11:38:02;-0.60;99.90
20698;DHT22;10508;50.956;4.640;2022-12-18T11:40:38;-0.50;99.90
20698;DHT22;10508;50.956;4.640;2022-12-18T11:48:49;-0.50;99.90
20698;DHT22;10508;50.956;4.640;2022-12-18T11:51:31;-0.50;99.90
20698;DHT22;10508;50.956;4.640;2022-12-18T11:53:57;-0.50;99.90
20698;DHT22;10508;50.956;4.640;2022-12-18T11:56:29;-0.60;99.90
20698;DHT22;10508;50.956;4.640;2022-12-18T12:01:58;-0.50;99.90
20698;DHT22;10508;50.956;4.640;2022-12-18T12:11:06;-0.30;99.90
20698;DHT22;10508;50.956;4.640;2022-12-18T12:13:33;-0.20;99.90
20698;DHT22;10508;50.956;4.640;2022-12-18T12:21:40;-0.10;99.90
20698;DHT22;10508;50.956;4.640;2022-12-18T12:29:50;0.00;99.90
20698;DHT22;10508;50.956;4.640;2022-12-18T12:35:06;0.00;99.90
20698;DHT22;10508;50.956;4.640;2022-12-18T12:40:37;0.10;99.90
20698;DHT22;10508;50.956;4.640;2022-12-18T12:46:13;0.20;99.90
20698;DHT22;10508;50.956;4.640;2022-12-18T12:48:45;0.20;99.90
20698;DHT22;10508;50.956;4.640;2022-12-18T12:51:35;0.30;99.90
20698;DHT22;10508;50.956;4.640;2022-12-18T12:54:05;0.20;99.90
20698;DHT22;10508;50.956;4.640;2022-12-18T12:56:39;0.30;99.90
20698;DHT22;10508;50.956;4.640;2022-12-18T13:04:47;0.40;99.90
20698;DHT22;10508;50.956;4.640;2022-12-18T13:07:26;0.40;99.90
20698;DHT22;10508;50.956;4.640;2022-12-18T13:10:25;0.40;99.90
20698;DHT22;10508;50.956;4.640;2022-12-18T13:13:11;0.50;99.90
20698;DHT22;10508;50.956;4.640;2022-12-18T13:20:36;0.50;99.90
20698;DHT22;10508;50.956;4.640;2022-12-18T13:31:03;0.60;99.90
20698;DHT22;10508;50.956;4.640;2022-12-18T13:36:14;0.50;99.90
20698;DHT22;10508;50.956;4.640;2022-12-18T13:38:42;0.60;99.90
20698;DHT22;10508;50.956;4.640;2022-12-18T13:43:47;0.70;99.90
20698;DHT22;10508;50.956;4.640;2022-12-18T13:48:57;0.70;99.90
20698;DHT22;10508;50.956;4.640;2022-12-18T13:51:25;0.70;99.90
20698;DHT22;10508;50.956;4.640;2022-12-18T13:53:58;0.70;99.90
20698;DHT22;10508;50.956;4.640;2022-12-18T13:56:30;0.80;99.90
20698;DHT22;10508;50.956;4.640;2022-12-18T14:01:53;0.90;99.90
20698;DHT22;10508;50.956;4.640;2022-12-18T14:07:00;0.80;99.90
20698;DHT22;10508;50.956;4.640;2022-12-18T14:09:29;0.80;99.90
20698;DHT22;10508;50.956;4.640;2022-12-18T14:11:56;0.90;99.90
20698;DHT22;10508;50.956;4.640;2022-12-18T14:14:46;0.90;99.90
20698;DHT22;10508;50.956;4.640;2022-12-18T14:17:13;0.90;99.90
20698;DHT22;10508;50.956;4.640;2022-12-18T14:19:48;0.80;99.90
20698;DHT22;10508;50.956;4.640;2022-12-18T14:22:21;0.90;99.90
20698;DHT22;10508;50.956;4.640;2022-12-18T14:24:47;0.90;99.90
20698;DHT22;10508;50.956;4.640;2022-12-18T14:27:30;0.90;99.90
20698;DHT22;10508;50.956;4.640;2022-12-18T14:29:55;1.00;99.90
20698;DHT22;10508;50.956;4.640;2022-12-18T14:32:21;0.90;99.90
20698;DHT22;10508;50.956;4.640;2022-12-18T14:34:52;0.90;99.90
20698;DHT22;10508;50.956;4.640;2022-12-18T14:37:26;0.90;99.90
20698;DHT22;10508;50.956;4.640;2022-12-18T14:40:02;0.90;99.90
20698;DHT22;10508;50.956;4.640;2022-12-18T14:42:29;0.90;99.90
20698;DHT22;10508;50.956;4.640;2022-12-18T14:45:33;1.00;99.90
20698;DHT22;10508;50.956;4.640;2022-12-18T14:48:00;1.00;99.90
20698;DHT22;10508;50.956;4.640;2022-12-18T14:50:26;1.00;99.90
20698;DHT22;10508;50.956;4.640;2022-12-18T14:52:52;1.00;99.90
20698;DHT22;10508;50.956;4.640;2022-12-18T14:55:19;1.00;99.90
20698;DHT22;10508;50.956;4.640;2022-12-18T14:57:46;1.00;99.90
20698;DHT22;10508;50.956;4.640;2022-12-18T15:00:21;1.00;99.90
20698;DHT22;10508;50.956;4.640;2022-12-18T15:02:50;1.00;99.90
20698;DHT22;10508;50.956;4.640;2022-12-18T15:05:20;1.00;99.90
20698;DHT22;10508;50.956;4.640;2022-12-18T15:07:51;1.00;99.90
20698;DHT22;10508;50.956;4.640;2022-12-18T15:10:22;1.00;99.90
20698;DHT22;10508;50.956;4.640;2022-12-18T15:20:28;0.90;99.90
20698;DHT22;10508;50.956;4.640;2022-12-18T15:22:56;0.90;99.90
20698;DHT22;10508;50.956;4.640;2022-12-18T15:25:32;0.90;99.90
20698;DHT22;10508;50.956;4.640;2022-12-18T15:27:59;1.00;99.90
20698;DHT22;10508;50.956;4.640;2022-12-18T15:30:25;1.00;99.90
20698;DHT22;10508;50.956;4.640;2022-12-18T15:32:52;1.00;99.90
20698;DHT22;10508;50.956;4.640;2022-12-18T15:35:37;1.00;99.90
20698;DHT22;10508;50.956;4.640;2022-12-18T15:38:03;1.00;99.90
20698;DHT22;10508;50.956;4.640;2022-12-18T15:40:29;1.00;99.90
20698;DHT22;10508;50.956;4.640;2022-12-18T15:42:55;1.10;99.90
20698;DHT22;10508;50.956;4.640;2022-12-18T15:45:40;1.00;99.90
20698;DHT22;10508;50.956;4.640;2022-12-18T15:48:22;1.10;99.90
20698;DHT22;10508;50.956;4.640;2022-12-18T15:50:52;1.10;99.90
20698;DHT22;10508;50.956;4.640;2022-12-18T15:53:19;1.10;99.90
20698;DHT22;10508;50.956;4.640;2022-12-18T15:55:44;1.10;99.90
20698;DHT22;10508;50.956;4.640;2022-12-18T15:58:28;1.10;99.90
20698;DHT22;10508;50.956;4.640;2022-12-18T16:00:55;1.10;99.90
20698;DHT22;10508;50.956;4.640;2022-12-18T16:03:23;1.10;99.90
20698;DHT22;10508;50.956;4.640;2022-12-18T16:05:49;1.10;99.90
20698;DHT22;10508;50.956;4.640;2022-12-18T16:08:14;1.10;99.90
20698;DHT22;10508;50.956;4.640;2022-12-18T16:10:40;1.20;99.90
20698;DHT22;10508;50.956;4.640;2022-12-18T16:13:09;1.20;99.90
20698;DHT22;10508;50.956;4.640;2022-12-18T16:15:35;1.20;99.90
20698;DHT22;10508;50.956;4.640;2022-12-18T16:18:00;1.10;99.90
20698;DHT22;10508;50.956;4.640;2022-12-18T16:20:26;1.20;99.90
20698;DHT22;10508;50.956;4.640;2022-12-18T16:22:52;1.20;99.90
20698;DHT22;10508;50.956;4.640;2022-12-18T16:25:23;1.10;99.90
20698;DHT22;10508;50.956;4.640;2022-12-18T16:27:50;1.10;99.90
20698;DHT22;10508;50.956;4.640;2022-12-18T16:30:19;1.10;99.90
20698;DHT22;10508;50.956;4.640;2022-12-18T16:32:45;1.20;99.90
20698;DHT22;10508;50.956;4.640;2022-12-18T16:35:12;1.20;99.90
20698;DHT22;10508;50.956;4.640;2022-12-18T16:37:39;1.20;99.90
20698;DHT22;10508;50.956;4.640;2022-12-18T16:40:07;1.20;99.90
20698;DHT22;10508;50.956;4.640;2022-12-18T16:42:35;1.20;99.90
20698;DHT22;10508;50.956;4.640;2022-12-18T16:45:01;1.20;99.90
20698;DHT22;10508;50.956;4.640;2022-12-18T16:47:27;1.20;99.90
20698;DHT22;10508;50.956;4.640;2022-12-18T16:49:52;1.20;99.90
20698;DHT22;10508;50.956;4.640;2022-12-18T16:52:20;1.20;99.90
20698;DHT22;10508;50.956;4.640;2022-12-18T16:54:46;1.20;99.90
20698;DHT22;10508;50.956;4.640;2022-12-18T16:57:14;1.30;99.90
20698;DHT22;10508;50.956;4.640;2022-12-18T16:59:40;1.30;99.90
20698;DHT22;10508;50.956;4.640;2022-12-18T17:02:15;1.30;99.90
20698;DHT22;10508;50.956;4.640;2022-12-18T17:04:41;1.30;99.90
20698;DHT22;10508;50.956;4.640;2022-12-18T17:07:07;1.40;99.90
20698;DHT22;10508;50.956;4.640;2022-12-18T17:09:33;1.40;99.90
20698;DHT22;10508;50.956;4.640;2022-12-18T17:11:59;1.40;99.90
20698;DHT22;10508;50.956;4.640;2022-12-18T17:14:25;1.40;99.90
20698;DHT22;10508;50.956;4.640;2022-12-18T17:16:52;1.40;99.90
20698;DHT22;10508;50.956;4.640;2022-12-18T17:19:18;1.40;99.90
20698;DHT22;10508;50.956;4.640;2022-12-18T17:21:46;1.40;99.90
20698;DHT22;10508;50.956;4.640;2022-12-18T17:24:12;1.40;99.90
20698;DHT22;10508;50.956;4.640;2022-12-18T17:26:37;1.40;99.90
20698;DHT22;10508;50.956;4.640;2022-12-18T17:29:03;1.50;99.90
20698;DHT22;10508;50.956;4.640;2022-12-18T17:31:30;1.50;99.90
20698;DHT22;10508;50.956;4.640;2022-12-18T17:33:57;1.50;99.90
20698;DHT22;10508;50.956;4.640;2022-12-18T17:36:22;1.50;99.90
20698;DHT22;10508;50.956;4.640;2022-12-18T17:38:50;1.50;99.90
20698;DHT22;10508;50.956;4.640;2022-12-18T17:41:17;1.50;99.90
20698;DHT22;10508;50.956;4.640;2022-12-18T17:43:42;1.60;99.90
20698;DHT22;10508;50.956;4.640;2022-12-18T17:46:13;1.50;99.90
20698;DHT22;10508;50.956;4.640;2022-12-18T17:48:39;1.60;99.90
20698;DHT22;10508;50.956;4.640;2022-12-18T17:51:08;1.60;99.90
20698;DHT22;10508;50.956;4.640;2022-12-18T17:53:35;1.70;99.90
20698;DHT22;10508;50.956;4.640;2022-12-18T17:56:01;1.60;99.90
20698;DHT22;10508;50.956;4.640;2022-12-18T17:58:30;1.70;99.90
20698;DHT22;10508;50.956;4.640;2022-12-18T18:00:57;1.70;99.90
20698;DHT22;10508;50.956;4.640;2022-12-18T18:03:22;1.70;99.90